createdAt,value
2019-04-11T00:00:55.999Z,3.7
2019-04-11T00:05:55.600Z,3.7
2019-04-11T00:10:56.024Z,3.7
2019-04-11T00:15:55.333Z,3.6
2019-04-11T00:20:56.238Z,3.6
2019-04-11T00:25:55.977Z,3.6
2019-04-11T00:30:55.256Z,3.6
2019-04-11T00:35:55.993Z,3.5
2019-04-11T00:40:55.454Z,3.5
2019-04-11T00:45:56.140Z,3.4
2019-04-11T00:50:55.935Z,3.4
2019-04-11T00:55:56.132Z,3.4
2019-04-11T01:00:56.096Z,3.4
2019-04-11T01:05:56.680Z,3.3
2019-04-11T01:10:55.299Z,3.3
2019-04-11T01:15:56.798Z,3.2
2019-04-11T01:20:55.753Z,3.2
2019-04-11T01:25:57.012Z,3.1
2019-04-11T01:30:55.588Z,3.1
2019-04-11T01:35:55.643Z,3
2019-04-11T01:40:56.230Z,3
2019-04-11T01:45:56.003Z,2.9
2019-04-11T01:50:55.407Z,2.9
2019-04-11T01:55:55.284Z,2.9
2019-04-11T02:00:56.750Z,2.9
2019-04-11T02:05:57.097Z,2.8
2019-04-11T02:10:57.079Z,2.8
2019-04-11T02:15:56.817Z,2.8
2019-04-11T02:20:55.875Z,2.8
2019-04-11T02:25:56.563Z,2.7
2019-04-11T02:30:56.640Z,2.7
2019-04-11T02:35:56.666Z,2.6
2019-04-11T02:40:57.318Z,2.6
2019-04-11T02:46:09.061Z,2.6
2019-04-11T02:50:56.643Z,2.6
2019-04-11T02:55:56.526Z,2.4
2019-04-11T03:00:57.138Z,2.4
2019-04-11T03:05:57.777Z,2.4
2019-04-11T03:10:57.484Z,2.4
2019-04-11T03:16:08.179Z,2.3
2019-04-11T03:21:00.123Z,2.3
2019-04-11T03:25:56.619Z,2.3
2019-04-11T03:31:26.625Z,2.3
2019-04-11T03:37:00.030Z,2.3
2019-04-11T03:41:12.225Z,2.3
2019-04-11T03:46:14.240Z,2.2
2019-04-11T03:50:57.402Z,2.2
2019-04-11T03:55:56.198Z,2.2
2019-04-11T04:00:59.284Z,2.2
2019-04-11T04:05:57.240Z,2.1
2019-04-11T04:10:56.473Z,2.1
2019-04-11T04:16:06.382Z,1.9
2019-04-11T04:20:57.677Z,1.9
2019-04-11T04:25:56.115Z,1.8
2019-04-11T04:30:55.961Z,1.8
2019-04-11T04:35:57.886Z,1.6
2019-04-11T04:41:07.629Z,1.6
2019-04-11T04:46:13.671Z,1.3
2019-04-11T04:50:57.641Z,1.3
2019-04-11T04:55:57.438Z,1.2
2019-04-11T05:00:57.917Z,1.2
2019-04-11T05:05:55.961Z,0.9
2019-04-11T05:10:57.858Z,0.9
2019-04-11T05:16:07.418Z,0.8
2019-04-11T05:20:56.997Z,0.8
2019-04-11T05:25:57.150Z,0.6
2019-04-11T05:30:55.521Z,0.6
2019-04-11T05:35:56.493Z,0.6
2019-04-11T05:40:56.654Z,0.6
2019-04-11T05:45:56.720Z,0.5
2019-04-11T05:50:56.490Z,0.5
2019-04-11T05:55:55.804Z,0.6
2019-04-11T06:00:57.698Z,0.6
2019-04-11T06:05:59.861Z,0.7
2019-04-11T06:10:56.683Z,0.7
2019-04-11T06:16:00.657Z,0.9
2019-04-11T06:20:56.243Z,0.9
2019-04-11T06:25:55.697Z,1.1
2019-04-11T06:30:56.925Z,1.1
2019-04-11T06:35:56.717Z,1.3
2019-04-11T06:40:56.149Z,1.3
2019-04-11T06:45:56.573Z,1.7
2019-04-11T06:50:55.940Z,1.7
2019-04-11T06:55:57.326Z,1.9
2019-04-11T07:00:55.847Z,1.9
2019-04-11T07:05:57.275Z,2.4
2019-04-11T07:10:55.778Z,2.4
2019-04-11T07:15:56.916Z,3.1
2019-04-11T07:20:56.385Z,3.1
2019-04-11T07:25:56.023Z,3.9
2019-04-11T07:30:56.398Z,3.9
2019-04-11T07:35:59.327Z,4.8
2019-04-11T07:40:56.263Z,4.8
2019-04-11T07:45:55.929Z,5.4
2019-04-11T07:50:57.610Z,5.4
2019-04-11T07:55:56.007Z,5.8
2019-04-11T08:00:56.561Z,5.8
2019-04-11T08:05:56.619Z,5.9
2019-04-11T08:10:55.704Z,5.9
2019-04-11T08:15:55.968Z,5.8
2019-04-11T08:20:57.441Z,5.8
2019-04-11T08:25:55.976Z,5.8
2019-04-11T08:30:57.371Z,5.8
2019-04-11T08:35:57.169Z,6.2
2019-04-11T08:40:56.309Z,6.2
2019-04-11T08:45:56.652Z,6.4
2019-04-11T08:50:56.750Z,6.4
2019-04-11T08:55:58.861Z,6.7
2019-04-11T09:00:58.718Z,6.7
2019-04-11T09:05:57.929Z,7
2019-04-11T09:10:56.586Z,7
2019-04-11T09:15:57.171Z,7.2
2019-04-11T09:20:57.872Z,7.2
2019-04-11T09:25:56.579Z,7.2
2019-04-11T09:30:56.975Z,7.2
2019-04-11T09:35:55.883Z,7.2
2019-04-11T09:40:57.122Z,7.2
2019-04-11T09:45:55.893Z,7.2
2019-04-11T09:50:56.726Z,7.2
2019-04-11T09:55:56.109Z,7.1
2019-04-11T10:00:56.757Z,7.1
2019-04-11T10:05:56.720Z,7.1
2019-04-11T10:10:57.485Z,7.1
2019-04-11T10:15:55.782Z,7.2
2019-04-11T10:20:57.176Z,7.2
2019-04-11T10:25:55.990Z,7.2
2019-04-11T10:30:57.817Z,7.2
2019-04-11T10:35:56.734Z,7.2
2019-04-11T10:40:56.651Z,7.2
2019-04-11T10:45:56.611Z,7.2
2019-04-11T10:50:56.266Z,7.2
2019-04-11T10:55:55.945Z,7.1
2019-04-11T11:00:56.219Z,7.1
2019-04-11T11:05:57.595Z,7
2019-04-11T11:10:57.684Z,7
2019-04-11T11:15:56.273Z,7.2
2019-04-11T11:20:58.812Z,7.2
2019-04-11T11:25:56.401Z,7.3
2019-04-11T11:30:56.664Z,7.3
2019-04-11T11:36:00.141Z,7.5
2019-04-11T11:40:56.346Z,7.5
2019-04-11T11:45:56.749Z,7.6
2019-04-11T11:50:57.093Z,7.6
2019-04-11T11:55:57.915Z,7.7
2019-04-11T12:00:57.850Z,7.7
2019-04-11T12:05:56.648Z,7.6
2019-04-11T12:10:57.561Z,7.6
2019-04-11T12:15:56.374Z,7.6
2019-04-11T12:20:59.044Z,7.6
2019-04-11T12:25:57.729Z,7.4
2019-04-11T12:31:00.578Z,7.4
2019-04-11T12:35:57.930Z,7.3
2019-04-11T12:40:56.322Z,7.3
2019-04-11T12:45:56.782Z,7.1
2019-04-11T12:50:55.966Z,7.1
2019-04-11T12:55:56.860Z,7.1
2019-04-11T13:00:56.366Z,7.1
2019-04-11T13:05:57.025Z,6.9
2019-04-11T13:10:57.023Z,6.9
2019-04-11T13:15:56.617Z,6.8
2019-04-11T13:20:56.079Z,6.8
2019-04-11T13:25:56.250Z,6.7
2019-04-11T13:30:57.746Z,6.7
2019-04-11T13:35:57.027Z,6.7
2019-04-11T13:40:56.547Z,6.7
2019-04-11T13:45:56.165Z,6.7
2019-04-11T13:50:56.654Z,6.7
2019-04-11T13:55:56.293Z,6.7
2019-04-11T14:00:56.650Z,6.7
2019-04-11T14:05:56.439Z,6.8
2019-04-11T14:10:56.458Z,6.8
2019-04-11T14:15:56.601Z,6.7
2019-04-11T14:20:56.507Z,6.7
2019-04-11T14:25:57.029Z,6.6
2019-04-11T14:30:56.497Z,6.6
2019-04-11T14:35:57.819Z,6.4
2019-04-11T14:41:01.489Z,6.4
2019-04-11T14:45:56.438Z,6.3
2019-04-11T14:50:56.915Z,6.3
2019-04-11T14:55:56.577Z,6.1
2019-04-11T15:00:56.947Z,6.1
2019-04-11T15:05:56.814Z,6
2019-04-11T15:10:56.934Z,6
2019-04-11T15:15:56.844Z,6
2019-04-11T15:20:56.504Z,6
2019-04-11T15:25:56.935Z,5.9
2019-04-11T15:30:56.363Z,5.9
2019-04-11T15:35:58.054Z,5.9
2019-04-11T15:40:56.980Z,5.9
2019-04-11T15:45:56.407Z,5.9
2019-04-11T15:51:06.083Z,5.9
2019-04-11T15:55:56.250Z,5.9
2019-04-11T16:00:56.539Z,5.9
2019-04-11T16:05:57.265Z,5.8
2019-04-11T16:10:57.087Z,5.8
2019-04-11T16:16:04.020Z,5.8
2019-04-11T16:20:57.221Z,5.8
2019-04-11T16:25:56.449Z,5.8
2019-04-11T16:30:56.695Z,5.8
2019-04-11T16:35:57.242Z,5.8
2019-04-11T16:40:56.830Z,5.8
2019-04-11T16:45:57.137Z,5.8
2019-04-11T16:50:56.653Z,5.8
2019-04-11T16:55:57.110Z,5.8
2019-04-11T17:00:56.484Z,5.8
2019-04-11T17:05:57.159Z,5.7
2019-04-11T17:10:57.617Z,5.7
2019-04-11T17:15:59.853Z,5.7
2019-04-11T17:20:56.992Z,5.7
2019-04-11T17:25:56.357Z,5.7
2019-04-11T17:30:56.752Z,5.7
2019-04-11T17:35:57.170Z,5.6
2019-04-11T17:40:56.626Z,5.6
2019-04-11T17:45:57.655Z,5.5
2019-04-11T17:50:57.087Z,5.5
2019-04-11T17:55:56.756Z,5.3
2019-04-11T18:00:57.222Z,5.3
2019-04-11T18:05:56.616Z,5.2
2019-04-11T18:10:56.756Z,5.2
2019-04-11T18:16:00.910Z,5.1
2019-04-11T18:20:57.038Z,5.1
2019-04-11T18:25:56.448Z,4.9
2019-04-11T18:30:56.819Z,4.9
2019-04-11T18:35:56.468Z,4.8
2019-04-11T18:40:57.040Z,4.8
2019-04-11T18:45:57.350Z,4.7
2019-04-11T18:50:56.798Z,4.7
2019-04-11T18:55:57.056Z,4.7
2019-04-11T19:00:56.592Z,4.7
2019-04-11T19:05:57.267Z,4.6
2019-04-11T19:10:57.252Z,4.6
2019-04-11T19:15:57.292Z,4.6
2019-04-11T19:20:56.656Z,4.6
2019-04-11T19:25:57.306Z,4.5
2019-04-11T19:30:57.013Z,4.5
2019-04-11T19:35:56.827Z,4.4
2019-04-11T19:40:57.268Z,4.4
2019-04-11T19:45:58.645Z,4.4
2019-04-11T19:50:59.002Z,4.4
2019-04-11T19:55:57.140Z,4.3
2019-04-11T20:00:56.461Z,4.3
2019-04-11T20:05:56.949Z,4.3
2019-04-11T20:10:56.539Z,4.3
2019-04-11T20:15:57.374Z,4.2
2019-04-11T20:20:56.784Z,4.2
2019-04-11T20:25:57.131Z,4.2
2019-04-11T20:30:56.537Z,4.2
2019-04-11T20:35:57.193Z,4.1
2019-04-11T20:40:56.711Z,4.1
2019-04-11T20:45:58.527Z,4.1
2019-04-11T20:50:56.968Z,4.1
2019-04-11T20:55:57.300Z,4
2019-04-11T21:00:56.859Z,4
2019-04-11T21:05:59.014Z,3.9
2019-04-11T21:10:57.208Z,3.9
2019-04-11T21:15:57.460Z,3.9
2019-04-11T21:20:57.183Z,3.9
2019-04-11T21:25:58.838Z,3.8
2019-04-11T21:30:59.926Z,3.8
2019-04-11T21:35:57.214Z,3.8
2019-04-11T21:40:56.698Z,3.8
2019-04-11T21:45:57.349Z,3.7
2019-04-11T21:50:57.008Z,3.7
2019-04-11T21:55:56.797Z,3.6
2019-04-11T22:00:57.301Z,3.6
2019-04-11T22:05:59.638Z,3.5
2019-04-11T22:10:56.912Z,3.5
2019-04-11T22:15:56.822Z,3.4
2019-04-11T22:20:57.547Z,3.4
2019-04-11T22:25:57.169Z,3.3
2019-04-11T22:30:56.593Z,3.3
2019-04-11T22:35:59.299Z,3.1
2019-04-11T22:40:57.288Z,3.1
2019-04-11T22:45:56.703Z,2.9
2019-04-11T22:50:57.101Z,2.9
2019-04-11T22:55:57.696Z,2.7
2019-04-11T23:00:57.473Z,2.7
2019-04-11T23:05:57.057Z,2.5
2019-04-11T23:10:56.852Z,2.5
2019-04-11T23:15:57.428Z,2.2
2019-04-11T23:20:56.914Z,2.2
2019-04-11T23:25:57.549Z,1.9
2019-04-11T23:30:57.423Z,1.9
2019-04-11T23:35:57.001Z,1.7
2019-04-11T23:40:57.024Z,1.7
2019-04-11T23:45:57.416Z,1.5
2019-04-11T23:50:56.899Z,1.5
2019-04-11T23:55:59.824Z,1.3
